createdAt,value
2018-12-06T00:01:43.097Z,29.67
2018-12-06T00:04:11.235Z,33.43
2018-12-06T00:06:39.366Z,31.70
2018-12-06T00:09:07.655Z,33.30
2018-12-06T00:11:35.886Z,43.23
2018-12-06T00:14:04.227Z,39.63
2018-12-06T00:16:32.351Z,39.73
2018-12-06T00:19:09.416Z,26.90
2018-12-06T00:21:37.696Z,37.53
2018-12-06T00:24:05.835Z,49.97
2018-12-06T00:26:33.975Z,39.70
2018-12-06T00:29:02.274Z,30.60
2018-12-06T00:31:30.482Z,35.60
2018-12-06T00:33:58.616Z,31.60
2018-12-06T00:36:26.835Z,46.07
2018-12-06T00:38:54.989Z,37.37
2018-12-06T00:41:23.205Z,40.03
2018-12-06T00:43:51.341Z,39.07
2018-12-06T00:46:19.790Z,39.73
2018-12-06T00:48:47.937Z,61.27
2018-12-06T00:51:16.083Z,37.57
2018-12-06T00:53:44.231Z,35.43
2018-12-06T00:56:12.463Z,34.47
2018-12-06T00:58:40.585Z,36.80
2018-12-06T01:01:08.809Z,34.87
2018-12-06T01:03:36.938Z,47.67
2018-12-06T01:06:05.398Z,37.17
2018-12-06T01:08:33.805Z,25.50
2018-12-06T01:11:01.950Z,39.40
2018-12-06T01:13:30.237Z,41.23
2018-12-06T01:15:58.384Z,33.33
2018-12-06T01:18:26.595Z,33.73
2018-12-06T01:20:54.820Z,28.30
2018-12-06T01:23:22.959Z,33.70
2018-12-06T01:25:51.163Z,28.63
2018-12-06T01:28:19.304Z,29.47
2018-12-06T01:30:47.429Z,34.47
2018-12-06T01:33:15.553Z,35.23
2018-12-06T01:35:43.775Z,31.07
2018-12-06T01:38:11.905Z,26.80
2018-12-06T01:40:40.100Z,26.63
2018-12-06T01:43:08.342Z,24.20
2018-12-06T01:45:36.557Z,26.50
2018-12-06T01:48:04.774Z,33.27
2018-12-06T01:50:32.990Z,31.83
2018-12-06T01:53:01.123Z,26.97
2018-12-06T01:55:29.336Z,27.43
2018-12-06T01:57:57.493Z,27.30
2018-12-06T02:00:25.710Z,24.60
2018-12-06T02:02:53.808Z,30.27
2018-12-06T02:05:21.921Z,37.13
2018-12-06T02:07:50.013Z,21.87
2018-12-06T02:10:18.289Z,28.47
2018-12-06T02:12:46.524Z,25.93
2018-12-06T02:15:14.705Z,23.07
2018-12-06T02:17:42.800Z,24.40
2018-12-06T02:20:10.990Z,25.00
2018-12-06T02:22:39.084Z,21.90
2018-12-06T02:25:07.307Z,25.97
2018-12-06T02:27:35.512Z,22.13
2018-12-06T02:30:04.257Z,22.57
2018-12-06T02:32:32.376Z,28.47
2018-12-06T02:35:00.557Z,30.53
2018-12-06T02:37:28.813Z,32.37
2018-12-06T02:39:56.993Z,24.30
2018-12-06T02:42:25.136Z,33.43
2018-12-06T02:44:53.254Z,27.03
2018-12-06T02:47:21.352Z,34.57
2018-12-06T02:49:49.448Z,34.37
2018-12-06T02:52:17.734Z,29.60
2018-12-06T02:54:45.830Z,24.87
2018-12-06T02:57:13.933Z,27.00
2018-12-06T02:59:42.034Z,22.27
2018-12-06T03:02:10.220Z,31.50
2018-12-06T03:04:45.082Z,18.73
2018-12-06T03:07:13.263Z,22.00
2018-12-06T03:09:41.696Z,34.00
2018-12-06T03:12:09.811Z,18.80
2018-12-06T03:14:38.120Z,19.70
2018-12-06T03:17:06.708Z,20.20
2018-12-06T03:19:34.855Z,23.33
2018-12-06T03:22:03.005Z,40.77
2018-12-06T03:24:31.172Z,18.63
2018-12-06T03:26:59.276Z,17.93
2018-12-06T03:29:27.470Z,22.63
2018-12-06T03:31:55.649Z,22.70
2018-12-06T03:34:23.821Z,25.17
2018-12-06T03:36:51.930Z,24.13
2018-12-06T03:39:20.246Z,40.90
2018-12-06T03:41:48.356Z,17.57
2018-12-06T03:44:16.529Z,20.83
2018-12-06T03:46:44.628Z,35.83
2018-12-06T03:49:12.717Z,17.90
2018-12-06T03:51:40.828Z,17.67
2018-12-06T03:54:08.925Z,39.67
2018-12-06T03:56:37.120Z,23.27
2018-12-06T03:59:05.369Z,24.03
2018-12-06T04:01:33.473Z,22.13
2018-12-06T04:04:01.568Z,34.70
2018-12-06T04:06:29.747Z,19.50
2018-12-06T04:08:57.917Z,33.90
2018-12-06T04:11:26.246Z,19.47
2018-12-06T04:13:54.425Z,24.00
2018-12-06T04:16:23.549Z,17.77
2018-12-06T04:18:51.640Z,19.50
2018-12-06T04:21:19.852Z,35.10
2018-12-06T04:23:47.984Z,23.93
2018-12-06T04:26:16.206Z,38.33
2018-12-06T04:28:44.330Z,38.73
2018-12-06T04:31:12.601Z,21.73
2018-12-06T04:33:40.726Z,31.73
2018-12-06T04:36:08.852Z,86.13
2018-12-06T04:38:37.078Z,24.37
2018-12-06T04:41:05.214Z,24.77
2018-12-06T04:43:33.341Z,22.07
2018-12-06T04:46:01.550Z,22.33
2018-12-06T04:48:29.823Z,25.37
2018-12-06T04:50:58.079Z,16.97
2018-12-06T04:53:26.346Z,26.73
2018-12-06T04:55:54.626Z,22.83
2018-12-06T04:58:22.893Z,73.13
2018-12-06T05:00:51.155Z,23.13
2018-12-06T05:03:19.399Z,30.07
2018-12-06T05:05:47.579Z,38.73
2018-12-06T05:08:16.265Z,47.73
2018-12-06T05:10:44.412Z,44.13
2018-12-06T05:13:12.611Z,37.10
2018-12-06T05:15:40.737Z,46.67
2018-12-06T05:18:08.879Z,57.23
2018-12-06T05:20:37.005Z,39.17
2018-12-06T05:23:11.641Z,50.23
2018-12-06T05:25:39.853Z,21.53
2018-12-06T05:28:08.049Z,44.10
2018-12-06T05:30:36.230Z,21.13
2018-12-06T05:33:04.473Z,37.73
2018-12-06T05:35:32.707Z,44.93
2018-12-06T05:38:00.853Z,18.93
2018-12-06T05:40:28.991Z,46.37
2018-12-06T05:42:57.249Z,68.30
2018-12-06T05:45:25.369Z,62.10
2018-12-06T05:47:53.621Z,40.13
2018-12-06T05:50:21.746Z,37.53
2018-12-06T05:52:49.886Z,29.57
2018-12-06T05:55:18.018Z,20.53
2018-12-06T05:57:46.234Z,20.60
2018-12-06T06:00:14.450Z,19.87
2018-12-06T06:02:42.623Z,55.00
2018-12-06T06:05:10.921Z,24.17
2018-12-06T06:07:39.079Z,22.63
2018-12-06T06:10:07.340Z,21.87
2018-12-06T06:12:35.495Z,51.20
2018-12-06T06:15:04.151Z,62.10
2018-12-06T06:17:32.795Z,46.17
2018-12-06T06:20:01.153Z,31.97
2018-12-06T06:22:29.522Z,29.83
2018-12-06T06:24:57.883Z,20.17
2018-12-06T06:27:26.416Z,35.90
2018-12-06T06:29:54.936Z,70.53
2018-12-06T06:32:23.321Z,53.00
2018-12-06T06:34:51.657Z,70.03
2018-12-06T06:37:20.052Z,41.93
2018-12-06T06:39:48.395Z,36.80
2018-12-06T06:42:16.755Z,68.70
2018-12-06T06:44:45.125Z,30.43
2018-12-06T06:47:13.519Z,34.87
2018-12-06T06:49:41.988Z,87.47
2018-12-06T06:52:10.443Z,48.90
2018-12-06T06:54:38.813Z,29.27
2018-12-06T06:57:07.228Z,26.97
2018-12-06T06:59:35.603Z,76.73
2018-12-06T07:02:04.083Z,96.03
2018-12-06T07:04:32.567Z,61.47
2018-12-06T07:07:01.089Z,35.53
2018-12-06T07:09:29.399Z,35.90
2018-12-06T07:11:58.069Z,162.87
2018-12-06T07:14:26.582Z,36.87
2018-12-06T07:16:54.958Z,76.80
2018-12-06T07:19:23.328Z,32.03
2018-12-06T07:21:51.777Z,86.57
2018-12-06T07:24:20.149Z,92.87
2018-12-06T07:26:48.702Z,38.43
2018-12-06T07:29:17.205Z,49.33
2018-12-06T07:31:45.554Z,30.33
2018-12-06T07:34:13.919Z,68.07
2018-12-06T07:36:42.384Z,36.53
2018-12-06T07:39:11.828Z,35.03
2018-12-06T07:41:40.240Z,41.57
2018-12-06T07:44:08.614Z,91.33
2018-12-06T07:46:36.925Z,29.90
2018-12-06T07:49:05.294Z,28.77
2018-12-06T07:51:33.610Z,84.20
2018-12-06T07:54:01.952Z,37.67
2018-12-06T07:56:30.438Z,67.00
2018-12-06T07:58:58.826Z,27.77
2018-12-06T08:01:27.185Z,42.07
2018-12-06T08:03:57.116Z,66.77
2018-12-06T08:06:25.634Z,31.90
2018-12-06T08:08:54.013Z,84.00
2018-12-06T08:11:22.360Z,28.30
2018-12-06T08:13:50.715Z,47.13
2018-12-06T08:16:19.063Z,126.43
2018-12-06T08:18:47.557Z,58.43
2018-12-06T08:21:15.839Z,83.37
2018-12-06T08:23:44.199Z,34.60
2018-12-06T08:26:12.536Z,29.63
2018-12-06T08:28:40.999Z,33.93
2018-12-06T08:31:09.450Z,40.00
2018-12-06T08:33:37.590Z,34.90
2018-12-06T08:36:05.818Z,44.23
2018-12-06T08:38:33.975Z,102.40
2018-12-06T08:41:02.131Z,44.17
2018-12-06T08:43:31.772Z,74.03
2018-12-06T08:46:00.090Z,44.90
2018-12-06T08:48:28.317Z,32.53
2018-12-06T08:50:56.549Z,53.73
2018-12-06T08:53:24.686Z,68.43
2018-12-06T08:55:52.922Z,71.60
2018-12-06T08:58:21.059Z,77.50
2018-12-06T09:00:49.215Z,76.60
2018-12-06T09:03:17.381Z,45.00
2018-12-06T09:05:45.633Z,61.83
2018-12-06T09:08:13.814Z,62.63
2018-12-06T09:10:42.105Z,62.53
2018-12-06T09:13:10.387Z,34.10
2018-12-06T09:15:38.585Z,42.50
2018-12-06T09:18:06.887Z,31.87
2018-12-06T09:20:35.224Z,85.20
2018-12-06T09:23:03.441Z,162.60
2018-12-06T09:25:31.670Z,183.57
2018-12-06T09:27:59.939Z,127.33
2018-12-06T09:30:28.125Z,80.87
2018-12-06T09:32:56.367Z,56.67
2018-12-06T09:35:24.667Z,89.10
2018-12-06T09:37:52.949Z,61.47
2018-12-06T09:40:27.951Z,54.83
2018-12-06T09:42:56.307Z,60.57
2018-12-06T09:45:24.550Z,53.40
2018-12-06T09:47:52.902Z,37.20
2018-12-06T09:50:21.133Z,40.17
2018-12-06T09:52:49.275Z,26.50
2018-12-06T09:55:17.436Z,19.80
2018-12-06T09:57:45.619Z,33.57
2018-12-06T10:00:16.207Z,19.93
2018-12-06T10:02:44.351Z,23.87
2018-12-06T10:05:12.660Z,25.60
2018-12-06T10:07:40.819Z,20.00
2018-12-06T10:10:09.098Z,13.97
2018-12-06T10:12:37.251Z,10.37
2018-12-06T10:15:05.794Z,12.33
2018-12-06T10:17:33.971Z,16.40
2018-12-06T10:20:02.106Z,7.57
2018-12-06T10:22:30.712Z,9.23
2018-12-06T10:24:58.913Z,8.97
2018-12-06T10:27:27.207Z,9.70
2018-12-06T10:29:55.377Z,9.57
2018-12-06T10:32:23.785Z,9.77
2018-12-06T10:34:53.573Z,10.03
2018-12-06T10:37:21.873Z,9.53
2018-12-06T10:39:50.671Z,9.53
2018-12-06T10:42:18.909Z,19.43
2018-12-06T10:44:47.065Z,22.27
2018-12-06T10:47:15.206Z,16.77
2018-12-06T10:49:43.324Z,24.40
2018-12-06T10:52:11.467Z,16.90
2018-12-06T10:54:39.684Z,21.00
2018-12-06T10:57:08.015Z,18.63
2018-12-06T10:59:36.202Z,18.70
2018-12-06T11:02:08.862Z,21.87
2018-12-06T11:04:37.035Z,15.47
2018-12-06T11:07:07.037Z,19.47
2018-12-06T11:09:35.321Z,15.90
2018-12-06T11:12:03.637Z,13.93
2018-12-06T11:14:31.781Z,15.90
2018-12-06T11:16:59.940Z,15.00
2018-12-06T11:19:28.066Z,19.73
2018-12-06T11:21:56.207Z,17.67
2018-12-06T11:24:24.531Z,14.50
2018-12-06T11:26:52.759Z,15.53
2018-12-06T11:29:20.897Z,15.30
2018-12-06T11:31:49.115Z,14.20
2018-12-06T11:34:17.546Z,16.43
2018-12-06T11:36:45.757Z,17.13
2018-12-06T11:39:14.029Z,20.33
2018-12-06T11:41:43.219Z,16.87
2018-12-06T11:44:11.510Z,16.03
2018-12-06T11:46:39.650Z,19.17
2018-12-06T11:49:07.867Z,18.43
2018-12-06T11:51:36.010Z,19.37
2018-12-06T11:54:04.317Z,18.47
2018-12-06T11:56:32.543Z,16.03
2018-12-06T11:59:00.793Z,18.27
2018-12-06T12:01:29.019Z,16.13
2018-12-06T12:03:57.163Z,16.63
2018-12-06T12:06:25.304Z,17.23
2018-12-06T12:08:53.456Z,16.73
2018-12-06T12:11:21.678Z,15.10
2018-12-06T12:13:49.822Z,12.90
2018-12-06T12:16:18.049Z,17.93
2018-12-06T12:18:46.206Z,16.57
2018-12-06T12:21:14.357Z,22.77
2018-12-06T12:23:42.493Z,18.27
2018-12-06T12:26:10.704Z,16.10
2018-12-06T12:28:38.855Z,16.37
2018-12-06T12:31:07.044Z,16.30
2018-12-06T12:33:35.291Z,15.47
2018-12-06T12:36:03.435Z,14.57
2018-12-06T12:38:31.588Z,17.40
2018-12-06T12:41:01.220Z,14.30
2018-12-06T12:43:29.449Z,17.67
2018-12-06T12:45:57.573Z,16.03
2018-12-06T12:48:25.701Z,14.03
2018-12-06T12:50:54.029Z,11.43
2018-12-06T12:53:23.026Z,14.87
2018-12-06T12:55:51.383Z,9.47
2018-12-06T12:58:19.534Z,12.73
2018-12-06T13:00:47.681Z,11.97
2018-12-06T13:03:15.889Z,13.13
2018-12-06T13:05:44.029Z,8.30
2018-12-06T13:08:12.177Z,8.47
2018-12-06T13:10:40.331Z,10.70
2018-12-06T13:13:08.472Z,13.47
2018-12-06T13:15:36.689Z,12.97
2018-12-06T13:18:04.911Z,13.50
2018-12-06T13:20:33.221Z,14.40
2018-12-06T13:23:01.353Z,12.53
2018-12-06T13:25:29.575Z,9.07
2018-12-06T13:27:57.707Z,11.07
2018-12-06T13:30:25.942Z,10.17
2018-12-06T13:32:54.158Z,13.53
2018-12-06T13:35:22.300Z,13.00
2018-12-06T13:37:50.633Z,11.10
2018-12-06T13:40:18.783Z,12.57
2018-12-06T13:42:46.928Z,10.77
2018-12-06T13:45:15.368Z,14.53
2018-12-06T13:47:43.589Z,11.57
2018-12-06T13:50:11.873Z,11.10
2018-12-06T13:52:40.147Z,16.13
2018-12-06T13:55:08.483Z,15.90
2018-12-06T13:57:36.787Z,14.43
2018-12-06T14:00:06.200Z,11.63
2018-12-06T14:02:34.359Z,12.83
2018-12-06T14:05:02.583Z,15.97
2018-12-06T14:07:30.715Z,16.83
2018-12-06T14:09:58.895Z,19.17
2018-12-06T14:12:27.041Z,21.93
2018-12-06T14:14:55.201Z,18.60
2018-12-06T14:17:23.347Z,19.20
2018-12-06T14:19:51.553Z,16.03
2018-12-06T14:22:19.769Z,17.73
2018-12-06T14:24:47.903Z,15.60
2018-12-06T14:27:16.121Z,17.47
2018-12-06T14:29:44.332Z,14.93
2018-12-06T14:32:12.551Z,16.90
2018-12-06T14:34:40.849Z,19.10
2018-12-06T14:37:08.981Z,17.83
2018-12-06T14:39:37.123Z,17.03
2018-12-06T14:42:05.351Z,13.33
2018-12-06T14:44:33.519Z,14.57
2018-12-06T14:47:02.004Z,17.80
2018-12-06T14:49:30.255Z,13.97
2018-12-06T14:51:58.517Z,15.60
2018-12-06T14:54:26.687Z,19.23
2018-12-06T14:56:54.963Z,28.90
2018-12-06T14:59:23.259Z,30.77
2018-12-06T15:01:51.436Z,27.73
2018-12-06T15:04:19.612Z,18.00
2018-12-06T15:06:47.909Z,12.83
2018-12-06T15:09:16.137Z,16.57
2018-12-06T15:11:44.383Z,15.03
2018-12-06T15:14:12.641Z,18.87
2018-12-06T15:16:40.943Z,18.17
2018-12-06T15:19:09.148Z,17.03
2018-12-06T15:21:37.287Z,17.90
2018-12-06T15:24:05.495Z,16.13
2018-12-06T15:26:33.634Z,15.97
2018-12-06T15:29:01.815Z,12.10
2018-12-06T15:31:29.954Z,18.53
2018-12-06T15:33:58.097Z,15.70
2018-12-06T15:36:26.523Z,18.03
2018-12-06T15:38:54.721Z,14.23
2018-12-06T15:41:22.936Z,16.30
2018-12-06T15:43:51.184Z,16.47
2018-12-06T15:46:19.473Z,15.97
2018-12-06T15:48:47.652Z,16.87
2018-12-06T15:51:15.911Z,16.47
2018-12-06T15:53:44.050Z,13.63
2018-12-06T15:56:12.190Z,15.40
2018-12-06T15:58:40.333Z,16.47
2018-12-06T16:01:08.625Z,16.87
2018-12-06T16:03:36.770Z,11.93
2018-12-06T16:06:04.987Z,12.27
2018-12-06T16:08:33.129Z,11.60
2018-12-06T16:11:01.460Z,10.57
2018-12-06T16:13:29.605Z,33.53
2018-12-06T16:15:57.758Z,11.73
2018-12-06T16:18:26.052Z,14.37
2018-12-06T16:20:54.280Z,19.80
2018-12-06T16:23:22.505Z,12.00
2018-12-06T16:25:50.781Z,9.73
2018-12-06T16:28:18.919Z,10.43
2018-12-06T16:30:47.048Z,12.80
2018-12-06T16:33:15.177Z,14.57
2018-12-06T16:35:43.381Z,8.40
2018-12-06T16:38:11.526Z,13.03
2018-12-06T16:40:39.737Z,12.90
2018-12-06T16:43:07.882Z,13.00
2018-12-06T16:45:36.003Z,9.63
2018-12-06T16:48:04.325Z,14.50
2018-12-06T16:50:32.486Z,9.83
2018-12-06T16:53:00.641Z,13.70
2018-12-06T16:55:28.789Z,13.53
2018-12-06T16:57:56.999Z,11.50
2018-12-06T17:00:25.290Z,13.20
2018-12-06T17:02:53.439Z,17.33
2018-12-06T17:05:21.590Z,13.80
2018-12-06T17:07:49.819Z,10.23
2018-12-06T17:10:18.105Z,8.93
2018-12-06T17:12:46.241Z,11.97
2018-12-06T17:15:14.460Z,13.30
2018-12-06T17:17:42.649Z,10.07
2018-12-06T17:20:10.795Z,9.27
2018-12-06T17:22:38.923Z,14.20
2018-12-06T17:25:07.343Z,12.27
2018-12-06T17:27:35.580Z,10.17
2018-12-06T17:30:04.495Z,10.67
2018-12-06T17:32:32.708Z,10.43
2018-12-06T17:35:00.915Z,18.30
2018-12-06T17:37:29.043Z,10.87
2018-12-06T17:39:57.259Z,14.63
2018-12-06T17:42:25.381Z,11.80
2018-12-06T17:44:53.518Z,14.00
2018-12-06T17:47:21.714Z,13.33
2018-12-06T17:49:49.871Z,11.70
2018-12-06T17:52:18.078Z,15.23
2018-12-06T17:54:46.219Z,12.67
2018-12-06T17:57:14.428Z,13.77
2018-12-06T17:59:42.571Z,16.17
2018-12-06T18:02:10.770Z,9.20
2018-12-06T18:04:38.907Z,8.50
2018-12-06T18:07:07.071Z,20.53
2018-12-06T18:09:35.205Z,15.43
2018-12-06T18:12:03.483Z,14.13
2018-12-06T18:14:31.698Z,11.47
2018-12-06T18:16:59.901Z,13.27
2018-12-06T18:19:28.134Z,15.37
2018-12-06T18:21:56.276Z,10.93
2018-12-06T18:24:24.405Z,16.97
2018-12-06T18:26:52.541Z,15.93
2018-12-06T18:29:20.679Z,12.77
2018-12-06T18:31:48.897Z,11.47
2018-12-06T18:34:17.017Z,13.03
2018-12-06T18:36:45.163Z,13.87
2018-12-06T18:39:13.282Z,12.80
2018-12-06T18:41:41.414Z,13.03
2018-12-06T18:44:09.543Z,16.13
2018-12-06T18:46:37.835Z,12.17
2018-12-06T18:49:05.987Z,12.37
2018-12-06T18:51:34.229Z,14.30
2018-12-06T18:54:02.408Z,18.13
2018-12-06T18:56:30.637Z,16.37
2018-12-06T18:58:58.782Z,14.80
2018-12-06T19:01:27.066Z,14.53
2018-12-06T19:03:55.221Z,12.97
2018-12-06T19:06:23.355Z,18.40
2018-12-06T19:08:51.486Z,13.90
2018-12-06T19:11:19.715Z,12.60
2018-12-06T19:13:47.923Z,15.03
2018-12-06T19:16:16.120Z,14.70
2018-12-06T19:18:44.424Z,16.10
2018-12-06T19:21:12.643Z,19.23
2018-12-06T19:23:40.841Z,18.40
2018-12-06T19:26:09.178Z,27.53
2018-12-06T19:28:37.313Z,18.80
2018-12-06T19:31:05.498Z,20.90
2018-12-06T19:33:33.635Z,21.47
2018-12-06T19:36:01.887Z,22.27
2018-12-06T19:38:30.125Z,19.27
2018-12-06T19:40:58.302Z,16.00
2018-12-06T19:43:26.530Z,16.20
2018-12-06T19:45:54.870Z,17.13
2018-12-06T19:48:23.059Z,13.07
2018-12-06T19:50:51.231Z,15.00
2018-12-06T19:53:19.376Z,18.40
2018-12-06T19:55:47.591Z,16.20
2018-12-06T19:58:15.786Z,14.77
2018-12-06T20:00:44.028Z,13.93
2018-12-06T20:03:12.385Z,18.77
2018-12-06T20:05:40.650Z,16.37
2018-12-06T20:08:08.809Z,19.37
2018-12-06T20:10:37.155Z,15.40
2018-12-06T20:13:05.353Z,14.37
2018-12-06T20:15:33.509Z,16.40
2018-12-06T20:18:01.783Z,15.63
2018-12-06T20:20:29.942Z,21.27
2018-12-06T20:22:58.066Z,16.60
2018-12-06T20:25:26.256Z,15.90
2018-12-06T20:27:54.481Z,19.80
2018-12-06T20:30:22.705Z,12.87
2018-12-06T20:32:50.859Z,15.77
2018-12-06T20:35:19.021Z,16.23
2018-12-06T20:37:47.157Z,15.70
2018-12-06T20:40:15.368Z,17.20
2018-12-06T20:42:43.580Z,16.10
2018-12-06T20:45:11.796Z,15.53
2018-12-06T20:47:39.975Z,18.43
2018-12-06T20:50:08.267Z,16.77
2018-12-06T20:52:36.412Z,21.43
2018-12-06T20:55:05.262Z,19.67
2018-12-06T20:57:37.426Z,28.60
2018-12-06T21:00:05.979Z,22.10
2018-12-06T21:02:34.207Z,18.77
2018-12-06T21:05:02.412Z,18.40
2018-12-06T21:07:30.567Z,17.20
2018-12-06T21:09:58.700Z,14.10
2018-12-06T21:12:26.872Z,13.00
2018-12-06T21:14:55.091Z,16.83
2018-12-06T21:17:23.271Z,19.97
2018-12-06T21:19:51.407Z,18.00
2018-12-06T21:22:19.654Z,16.87
2018-12-06T21:24:47.799Z,48.00
2018-12-06T21:27:15.935Z,14.57
2018-12-06T21:29:44.166Z,21.17
2018-12-06T21:32:12.450Z,39.43
2018-12-06T21:34:40.601Z,15.13
2018-12-06T21:37:08.733Z,15.57
2018-12-06T21:39:37.713Z,14.90
2018-12-06T21:42:05.899Z,15.43
2018-12-06T21:44:34.030Z,13.87
2018-12-06T21:47:02.334Z,14.40
2018-12-06T21:49:30.469Z,13.47
2018-12-06T21:51:58.607Z,15.00
2018-12-06T21:54:26.741Z,13.77
2018-12-06T21:56:54.883Z,14.50
2018-12-06T21:59:23.027Z,15.47
2018-12-06T22:02:01.007Z,17.27
2018-12-06T22:04:29.163Z,18.07
2018-12-06T22:06:57.289Z,22.27
2018-12-06T22:09:25.435Z,25.43
2018-12-06T22:11:53.627Z,21.83
2018-12-06T22:14:21.938Z,21.73
2018-12-06T22:16:50.180Z,16.70
2018-12-06T22:19:18.302Z,18.27
2018-12-06T22:21:46.429Z,20.53
2018-12-06T22:24:14.574Z,28.83
2018-12-06T22:26:42.701Z,25.57
2018-12-06T22:29:10.836Z,24.63
2018-12-06T22:31:38.988Z,44.27
2018-12-06T22:34:07.193Z,16.10
2018-12-06T22:36:35.401Z,11.43
2018-12-06T22:39:05.497Z,11.17
2018-12-06T22:41:33.641Z,14.60
2018-12-06T22:44:01.787Z,11.87
2018-12-06T22:46:30.010Z,14.37
2018-12-06T22:48:58.252Z,13.23
2018-12-06T22:51:26.474Z,11.73
2018-12-06T22:53:54.677Z,12.20
2018-12-06T22:56:22.827Z,9.80
2018-12-06T22:58:51.105Z,13.97
2018-12-06T23:01:23.653Z,13.23
2018-12-06T23:03:51.781Z,12.43
2018-12-06T23:06:19.998Z,10.87
2018-12-06T23:08:48.139Z,14.07
2018-12-06T23:11:16.291Z,10.30
2018-12-06T23:13:44.508Z,11.00
2018-12-06T23:16:12.740Z,10.57
2018-12-06T23:18:41.195Z,14.40
2018-12-06T23:21:09.441Z,15.60
2018-12-06T23:23:37.639Z,11.47
2018-12-06T23:26:05.845Z,10.03
2018-12-06T23:28:33.993Z,12.53
2018-12-06T23:31:02.121Z,8.30
2018-12-06T23:33:32.138Z,10.80
2018-12-06T23:36:00.471Z,10.53
2018-12-06T23:38:28.615Z,9.00
2018-12-06T23:40:56.749Z,8.63
2018-12-06T23:43:24.874Z,8.13
2018-12-06T23:45:52.989Z,9.43
2018-12-06T23:48:21.134Z,10.97
2018-12-06T23:50:49.425Z,9.83
2018-12-06T23:53:17.574Z,8.47
2018-12-06T23:55:45.843Z,10.37
2018-12-06T23:58:14.031Z,10.37
